Time;durP1;ratioP1;P1;durP2;ratioP2;P2;SDS_P1;SDS_P2;PMS_P1;PMS_P2;Temp;Humidity;BMP_temperature;BMP_pressure;BME280_temperature;BME280_humidity;BME280_pressure;Samples;Min_cycle;Max_cycle;Signal;HPM_P1;HPM_P2
2022/05/28 00:01:01;;;;;;;2.65;1.20;;;;;;;21.80;44.61;99079.66;5092718;28;20032;-48
2022/05/28 00:03:29;;;;;;;11.18;1.17;;;;;;;21.83;44.66;99087.94;5092656;28;20085;-49
2022/05/28 00:05:56;;;;;;;1.77;0.98;;;;;;;22.04;44.66;99078.09;5092641;28;20452;-48
2022/05/28 00:08:24;;;;;;;6.28;1.05;;;;;;;22.28;43.97;99070.38;5092580;28;20016;-49
2022/05/28 00:10:50;;;;;;;5.40;1.00;;;;;;;22.34;44.00;99071.19;5092539;28;20024;-49
2022/05/28 00:13:17;;;;;;;2.90;1.20;;;;;;;22.42;43.87;99069.84;5091064;28;20244;-48
2022/05/28 00:15:43;;;;;;;4.80;1.10;;;;;;;22.37;43.51;99062.59;5092432;28;20428;-49
2022/05/28 00:18:10;;;;;;;3.90;0.90;;;;;;;22.43;43.81;99058.84;5092377;28;20397;-48
2022/05/28 00:20:36;;;;;;;3.75;1.00;;;;;;;22.60;43.17;99055.09;5092390;28;20059;-49
2022/05/28 00:23:04;;;;;;;3.50;1.40;;;;;;;22.44;43.21;99062.34;5090976;28;20027;-49
2022/05/28 00:25:30;;;;;;;4.40;0.88;;;;;;;22.16;43.84;99053.75;5092296;28;20051;-48
2022/05/28 00:27:56;;;;;;;3.08;0.85;;;;;;;22.03;44.15;99060.41;5092276;28;20490;-49
2022/05/28 00:30:22;;;;;;;4.57;0.90;;;;;;;21.97;44.20;99060.69;5091919;28;20478;-48
2022/05/28 00:32:48;;;;;;;2.72;1.00;;;;;;;21.73;45.03;99056.66;5092190;28;20081;-48
2022/05/28 00:35:16;;;;;;;3.72;1.00;;;;;;;21.66;45.13;99061.44;5090845;28;20028;-49
2022/05/28 00:37:43;;;;;;;3.22;0.90;;;;;;;21.91;44.93;99062.56;5092164;28;20020;-48
2022/05/28 00:40:14;;;;;;;2.78;1.00;;;;;;;22.12;44.37;99052.69;5092066;28;20527;-48
2022/05/28 00:42:39;;;;;;;2.53;0.88;;;;;;;22.02;44.22;99053.50;5092151;28;20032;-48
2022/05/28 00:45:06;;;;;;;3.17;1.17;;;;;;;21.96;44.75;99059.91;5092014;28;20057;-49
2022/05/28 00:47:32;;;;;;;3.08;0.80;;;;;;;21.99;44.72;99045.19;5090659;28;20425;-47
2022/05/28 00:49:59;;;;;;;3.88;0.90;;;;;;;21.94;44.39;99037.97;5090654;28;20115;-48
2022/05/28 00:52:26;;;;;;;1.73;0.70;;;;;;;21.59;44.93;99047.56;5090500;28;20074;-48
2022/05/28 00:54:53;;;;;;;4.60;1.90;;;;;;;21.27;46.05;99037.81;5091699;28;20040;-49
2022/05/28 00:57:20;;;;;;;5.35;1.35;;;;;;;21.27;46.04;99032.47;5090310;28;20457;-48
2022/05/28 00:59:46;;;;;;;4.47;1.35;;;;;;;21.19;46.11;99037.50;5091841;28;20110;-48
2022/05/28 01:02:47;;;;;;;6.35;1.23;;;;;;;21.01;46.64;99036.13;5091810;28;20490;-48
2022/05/28 01:05:31;;;;;;;5.68;1.15;;;;;;;20.91;46.75;99034.19;5083336;28;20036;-48
2022/05/28 01:08:39;;;;;;;2.65;1.08;;;;;;;20.73;47.48;99041.56;5091804;28;20056;-48
2022/05/28 01:11:23;;;;;;;5.63;1.33;;;;;;;20.73;47.57;99033.56;5029168;28;20431;-48
2022/05/28 01:13:57;;;;;;;4.90;1.33;;;;;;;20.72;47.69;99036.47;5029291;28;20132;-48
2022/05/28 01:16:28;;;;;;;5.00;1.00;;;;;;;20.49;47.96;99027.00;5029446;28;20121;-47
2022/05/28 01:19:20;;;;;;;7.78;1.27;;;;;;;20.41;48.47;99014.94;5029300;28;20120;-48
2022/05/28 01:22:07;;;;;;;2.40;0.90;;;;;;;20.34;48.52;99028.50;5029359;28;20536;-48
2022/05/28 01:24:33;;;;;;;4.55;1.02;;;;;;;20.27;48.79;99027.91;5029356;28;20053;-48
2022/05/28 01:27:08;;;;;;;8.55;1.73;;;;;;;20.29;49.02;99023.13;5029277;28;20499;-48
2022/05/28 01:29:51;;;;;;;4.03;1.08;;;;;;;20.33;48.82;99010.88;5029354;28;20068;-47
2022/05/28 01:32:19;;;;;;;7.55;1.30;;;;;;;20.15;49.15;99008.63;4995306;28;20054;-48
2022/05/28 01:34:45;;;;;;;5.70;2.85;;;;;;;20.12;49.33;99020.59;4993143;28;20073;-48
2022/05/28 01:37:13;;;;;;;6.72;1.17;;;;;;;20.04;49.58;99013.06;4993052;28;20034;-49
2022/05/28 01:39:42;;;;;;;2.78;1.52;;;;;;;20.07;49.60;99009.09;5009550;28;20185;-49
2022/05/28 01:42:09;;;;;;;3.50;1.10;;;;;;;19.95;49.75;99007.38;5009463;28;20025;-48
2022/05/28 01:44:40;;;;;;;3.75;1.20;;;;;;;19.79;49.91;99008.31;5022374;28;20061;-48
2022/05/28 01:47:06;;;;;;;4.63;1.63;;;;;;;19.68;50.38;99001.25;5049947;28;20041;-48
2022/05/28 01:49:34;;;;;;;4.13;1.40;;;;;;;19.51;50.64;99004.81;5049922;28;20490;-49
2022/05/28 01:52:02;;;;;;;5.20;1.70;;;;;;;19.49;51.08;99003.47;5051096;28;20032;-49
2022/05/28 01:54:33;;;;;;;6.53;1.45;;;;;;;19.51;51.24;98991.50;5051178;28;20021;-48
2022/05/28 01:57:00;;;;;;;4.03;1.23;;;;;;;19.61;50.90;98990.03;5049882;28;20039;-47
2022/05/28 01:59:30;;;;;;;6.97;1.33;;;;;;;19.54;51.14;98980.38;5051164;28;20540;-48
2022/05/28 02:01:59;;;;;;;6.38;1.30;;;;;;;19.49;51.31;98975.00;5051123;28;20082;-48
2022/05/28 02:04:26;;;;;;;9.57;1.75;;;;;;;19.46;51.45;98972.84;5051096;28;20021;-48
2022/05/28 02:06:51;;;;;;;7.13;1.83;;;;;;;19.48;51.22;98975.25;5050982;28;20017;-49
2022/05/28 02:09:35;;;;;;;3.00;1.30;;;;;;;19.51;51.52;98969.41;5053195;28;20028;-48
2022/05/28 02:12:12;;;;;;;3.40;1.45;;;;;;;19.31;51.57;98975.34;5054430;28;20040;-48
2022/05/28 02:15:23;;;;;;;4.03;1.40;;;;;;;18.91;52.68;98965.84;5054549;28;20110;-48
2022/05/28 02:17:52;;;;;;;4.78;2.40;;;;;;;18.96;52.80;98965.91;5054448;28;20029;-49
2022/05/28 02:20:29;;;;;;;5.15;1.40;;;;;;;19.19;52.39;98970.16;5054351;28;20104;-49
2022/05/28 02:23:11;;;;;;;6.00;1.70;;;;;;;19.12;52.23;98961.56;5054405;28;20036;-48
2022/05/28 02:25:47;;;;;;;5.40;1.20;;;;;;;19.22;52.39;98955.56;5053081;28;20458;-48
2022/05/28 02:28:16;;;;;;;4.22;1.40;;;;;;;19.28;52.27;98954.56;5054325;28;20025;-48
2022/05/28 02:31:12;;;;;;;3.80;1.25;;;;;;;19.27;52.10;98944.97;5062621;28;20101;-49
2022/05/28 02:33:39;;;;;;;5.22;1.50;;;;;;;19.50;51.88;98957.97;5091829;28;20443;-49
2022/05/28 02:36:04;;;;;;;9.07;2.47;;;;;;;19.37;51.72;98953.03;5094363;28;20400;-48
2022/05/28 02:38:30;;;;;;;6.63;1.50;;;;;;;19.31;51.94;98948.72;5093000;28;20036;-47
2022/05/28 02:40:56;;;;;;;5.07;1.40;;;;;;;19.23;52.11;98947.31;5092946;28;20032;-50
2022/05/28 02:43:23;;;;;;;4.18;1.70;;;;;;;19.20;52.06;98945.16;5092920;28;20578;-48
2022/05/28 02:45:49;;;;;;;5.45;1.50;;;;;;;19.08;52.31;98949.84;5094171;28;20103;-48
2022/05/28 02:48:15;;;;;;;2.50;1.30;;;;;;;18.90;52.80;98945.63;5092789;28;20099;-48
2022/05/28 02:50:41;;;;;;;5.07;1.40;;;;;;;18.79;53.03;98942.03;5094087;28;20089;-49
2022/05/28 02:53:07;;;;;;;3.42;1.40;;;;;;;18.67;53.14;98938.66;5092595;28;20521;-48
2022/05/28 02:55:34;;;;;;;10.32;2.05;;;;;;;18.52;53.67;98942.75;5093992;28;20039;-49
2022/05/28 02:58:00;;;;;;;8.07;1.80;;;;;;;18.50;53.93;98944.84;5093962;28;20032;-48
2022/05/28 03:00:26;;;;;;;5.55;1.55;;;;;;;18.51;54.15;98935.84;5093880;28;20028;-48
2022/05/28 03:02:52;;;;;;;6.15;1.58;;;;;;;18.64;54.12;98934.66;5093805;28;20055;-49
2022/05/28 03:05:22;;;;;;;4.68;1.50;;;;;;;18.62;53.92;98933.28;5093840;28;20485;-49
2022/05/28 03:07:48;;;;;;;10.85;1.77;;;;;;;18.55;54.03;98926.31;5092397;28;20024;-48
2022/05/28 03:10:14;;;;;;;5.07;1.63;;;;;;;18.77;53.78;98928.16;5093696;28;20024;-48
2022/05/28 03:12:40;;;;;;;4.35;1.70;;;;;;;19.02;53.02;98919.69;5093562;28;20020;-49
2022/05/28 03:15:06;;;;;;;4.97;1.80;;;;;;;19.05;52.92;98923.72;5093597;28;20028;-48
2022/05/28 03:17:32;;;;;;;10.50;2.08;;;;;;;19.13;52.89;98918.75;5093576;28;20027;-48
2022/05/28 03:20:00;;;;;;;5.55;1.60;;;;;;;19.25;52.31;98926.56;5093048;28;20024;-48
2022/05/28 03:22:26;;;;;;;6.63;1.90;;;;;;;19.40;52.13;98925.94;5093441;28;20405;-48
2022/05/28 03:24:52;;;;;;;5.78;1.60;;;;;;;19.47;51.98;98923.06;5093429;28;20103;-49
2022/05/28 03:27:18;;;;;;;5.25;1.80;;;;;;;19.35;52.01;98918.69;5093341;28;20092;-49
2022/05/28 03:29:43;;;;;;;5.88;2.08;;;;;;;19.17;52.23;98911.06;5093290;28;20028;-48
2022/05/28 03:32:12;;;;;;;9.30;1.98;;;;;;;19.02;52.67;98918.91;5091612;28;20497;-48
2022/05/28 03:34:38;;;;;;;7.55;1.92;;;;;;;18.97;52.86;98911.66;5093254;28;20024;-49
2022/05/28 03:37:04;;;;;;;6.68;1.80;;;;;;;19.01;52.77;98919.94;5093152;28;20392;-49
2022/05/28 03:39:30;;;;;;;6.70;2.15;;;;;;;19.09;52.87;98920.28;5093396;28;20381;-49
2022/05/28 03:41:55;;;;;;;4.63;2.03;;;;;;;19.21;52.37;98911.38;5093070;28;20028;-48
2022/05/28 03:44:21;;;;;;;7.90;2.13;;;;;;;19.22;52.18;98920.97;5093019;28;20016;-49
2022/05/28 03:46:47;;;;;;;4.75;1.95;;;;;;;19.12;52.34;98911.03;5092953;28;20489;-48
2022/05/28 03:49:30;;;;;;;6.50;1.92;;;;;;;19.03;52.53;98912.53;5092927;28;20020;-49
2022/05/28 03:51:55;;;;;;;4.18;1.67;;;;;;;19.01;52.84;98914.63;5093130;28;20478;-49
2022/05/28 03:54:22;;;;;;;5.60;2.00;;;;;;;19.11;52.80;98915.53;5091556;28;20023;-49
2022/05/28 03:56:51;;;;;;;11.15;2.38;;;;;;;19.19;52.22;98908.16;5092738;28;20035;-49
2022/05/28 03:59:17;;;;;;;8.88;1.63;;;;;;;19.22;52.45;98918.31;5091497;28;20119;-49
2022/05/28 04:01:42;;;;;;;6.78;1.90;;;;;;;19.25;52.17;98910.63;5092687;28;20051;-48
2022/05/28 04:04:08;;;;;;;6.28;1.75;;;;;;;19.12;52.37;98916.34;5091366;28;20096;-49
2022/05/28 04:06:36;;;;;;;5.97;1.80;;;;;;;19.04;52.48;98911.47;5092613;28;20024;-48
2022/05/28 04:09:04;;;;;;;11.85;2.17;;;;;;;19.04;52.56;98919.47;5091253;28;20397;-49
2022/05/28 04:11:30;;;;;;;5.43;1.60;;;;;;;19.00;52.85;98913.81;5092433;28;20035;-48
2022/05/28 04:13:56;;;;;;;8.10;2.08;;;;;;;19.13;52.67;98917.94;5092437;28;20023;-49
2022/05/28 04:16:22;;;;;;;6.07;1.70;;;;;;;19.33;52.03;98920.00;5092495;28;20028;-49
2022/05/28 04:18:48;;;;;;;6.57;1.98;;;;;;;19.32;51.73;98916.53;5092402;28;20019;-48
2022/05/28 04:21:17;;;;;;;8.15;2.13;;;;;;;19.19;52.01;98908.97;5092358;28;20020;-49
2022/05/28 04:23:43;;;;;;;12.20;2.78;;;;;;;19.03;52.57;98909.84;5092616;28;20165;-48
2022/05/28 04:26:08;;;;;;;4.60;1.55;;;;;;;19.03;52.88;98918.63;5092314;28;20057;-48
2022/05/28 04:28:34;;;;;;;5.30;1.98;;;;;;;19.08;52.87;98920.56;5092317;28;20027;-48
2022/05/28 04:31:00;;;;;;;4.25;2.00;;;;;;;19.38;52.17;98908.59;5089899;28;20149;-49
2022/05/28 04:33:26;;;;;;;4.50;1.83;;;;;;;19.48;51.51;98906.06;5092118;28;20036;-48
2022/05/28 04:35:51;;;;;;;8.35;2.13;;;;;;;19.48;51.78;98914.03;5092130;28;20031;-48
2022/05/28 04:38:17;;;;;;;3.47;1.77;;;;;;;19.46;51.73;98918.81;5092153;28;20028;-48
2022/05/28 04:40:43;;;;;;;9.27;2.25;;;;;;;19.44;51.72;98919.06;5090778;28;20063;-49
2022/05/28 04:43:09;;;;;;;6.75;1.83;;;;;;;19.62;51.62;98923.22;5090743;28;20032;-48
2022/05/28 04:45:34;;;;;;;7.43;1.98;;;;;;;19.72;50.71;98925.19;5092038;28;20027;-49
2022/05/28 04:48:00;;;;;;;4.50;1.67;;;;;;;19.67;51.04;98930.44;5091984;28;20051;-49
2022/05/28 04:50:26;;;;;;;5.95;2.13;;;;;;;19.79;51.03;98922.31;5092050;28;20063;-48
2022/05/28 04:52:52;;;;;;;7.40;2.17;;;;;;;19.83;50.63;98934.03;5091822;28;20027;-49
2022/05/28 04:55:18;;;;;;;7.80;2.38;;;;;;;19.79;50.99;98924.97;5091880;28;20028;-49
2022/05/28 04:57:44;;;;;;;5.95;1.85;;;;;;;19.94;50.58;98925.88;5091955;28;20020;-48
2022/05/28 05:00:16;;;;;;;8.30;2.50;;;;;;;20.05;50.30;98926.75;5091854;28;20028;-48
2022/05/28 05:02:42;;;;;;;9.57;2.10;;;;;;;20.14;49.90;98925.22;5091914;28;20032;-48
2022/05/28 05:05:09;;;;;;;10.00;2.78;;;;;;;20.29;49.72;98926.38;5091833;28;20389;-48
2022/05/28 05:07:35;;;;;;;12.68;2.70;;;;;;;20.43;49.62;98930.19;5091814;28;20412;-48
2022/05/28 05:10:01;;;;;;;9.65;2.15;;;;;;;20.49;49.05;98923.00;5090466;28;20118;-49
2022/05/28 05:12:27;;;;;;;6.15;1.75;;;;;;;20.25;49.46;98920.75;5091694;28;20055;-48
2022/05/28 05:14:52;;;;;;;9.23;2.67;;;;;;;20.22;49.54;98923.13;5091713;28;20137;-49
2022/05/28 05:17:18;;;;;;;5.00;2.00;;;;;;;20.33;49.56;98924.78;5091734;28;20024;-49
2022/05/28 05:19:44;;;;;;;11.95;2.28;;;;;;;20.50;49.19;98927.25;5090428;28;20031;-49
2022/05/28 05:22:10;;;;;;;10.25;2.47;;;;;;;20.72;48.63;98927.91;5091657;28;20020;-49
2022/05/28 05:24:36;;;;;;;10.27;2.20;;;;;;;20.80;48.35;98921.28;5091658;28;20032;-48
2022/05/28 05:27:02;;;;;;;5.07;1.92;;;;;;;20.98;47.90;98916.56;5090347;28;20023;-49
2022/05/28 05:29:28;;;;;;;5.80;1.98;;;;;;;21.21;47.57;98920.59;5091609;28;20082;-48
2022/05/28 05:31:54;;;;;;;7.47;2.00;;;;;;;21.64;46.42;98919.34;5091270;28;20044;-49
2022/05/28 05:34:19;;;;;;;6.10;1.70;;;;;;;21.87;45.66;98915.34;5090200;28;20524;-49
2022/05/28 05:36:45;;;;;;;4.88;1.75;;;;;;;22.47;44.93;98914.69;5091537;28;20024;-49
2022/05/28 05:39:11;;;;;;;6.88;1.88;;;;;;;23.18;43.03;98902.88;5091530;28;20031;-48
2022/05/28 05:41:41;;;;;;;8.05;2.00;;;;;;;24.28;40.75;98899.78;5092249;28;20057;-48
2022/05/28 05:44:08;;;;;;;11.65;2.00;;;;;;;25.28;38.55;98892.63;5095337;28;20045;-48
2022/05/28 05:46:34;;;;;;;4.82;1.80;;;;;;;25.53;37.74;98893.31;5095285;28;20382;-48
2022/05/28 05:49:00;;;;;;;6.40;1.95;;;;;;;25.65;37.29;98903.59;5093973;28;20485;-49
2022/05/28 05:51:28;;;;;;;3.25;1.70;;;;;;;26.07;36.28;98896.44;5095221;28;20077;-48
2022/05/28 05:53:54;;;;;;;6.00;1.63;;;;;;;26.21;35.62;98891.09;5095154;28;20027;-48
2022/05/28 05:56:20;;;;;;;8.77;2.15;;;;;;;26.58;35.25;98895.50;5095137;28;20035;-48
2022/05/28 05:58:45;;;;;;;6.50;2.08;;;;;;;26.99;34.79;98886.53;5095085;28;20044;-49
2022/05/28 06:01:11;;;;;;;3.47;1.70;;;;;;;27.55;33.40;98886.31;5095057;28;20029;-50
2022/05/28 06:03:38;;;;;;;9.88;2.40;;;;;;;27.01;33.96;98886.22;5095008;28;20039;-49
2022/05/28 06:06:06;;;;;;;16.45;2.45;;;;;;;26.72;34.78;98883.88;5094933;28;20042;-49
2022/05/28 06:08:32;;;;;;;10.48;2.03;;;;;;;26.36;35.13;98882.72;5094939;28;20106;-49
2022/05/28 06:10:58;;;;;;;9.35;1.75;;;;;;;26.60;34.92;98881.72;5094836;28;20034;-48
2022/05/28 06:13:24;;;;;;;13.85;3.08;;;;;;;27.33;33.80;98887.94;5094734;28;20020;-49
2022/05/28 06:15:49;;;;;;;7.07;2.08;;;;;;;28.15;32.88;98887.75;5094773;28;20024;-49
2022/05/28 06:18:16;;;;;;;2.50;1.38;;;;;;;29.18;30.71;98885.63;5093456;28;20085;-49
2022/05/28 06:20:42;;;;;;;5.13;1.58;;;;;;;30.05;29.38;98871.91;5094675;28;20023;-49
2022/05/28 06:23:08;;;;;;;4.28;1.35;;;;;;;30.71;27.85;98882.25;5094691;28;20245;-49
2022/05/28 06:25:37;;;;;;;8.73;1.80;;;;;;;31.69;26.92;98879.19;5094698;28;20052;-49
2022/05/28 06:28:03;;;;;;;6.88;1.90;;;;;;;32.03;26.39;98878.03;5094586;28;20512;-49
2022/05/28 06:30:29;;;;;;;7.15;1.70;;;;;;;32.45;25.55;98875.06;5094276;28;20020;-49
2022/05/28 06:32:55;;;;;;;7.82;2.08;;;;;;;32.74;25.00;98865.09;5094504;28;20016;-49
2022/05/28 06:35:21;;;;;;;5.60;1.55;;;;;;;32.75;25.13;98874.81;5094459;28;20024;-48
2022/05/28 06:37:49;;;;;;;6.90;1.40;;;;;;;32.68;24.78;98871.91;5094373;28;20035;-49
2022/05/28 06:40:15;;;;;;;8.57;1.90;;;;;;;32.52;25.22;98868.25;5094370;28;20103;-49
2022/05/28 06:42:41;;;;;;;2.80;1.45;;;;;;;32.48;24.89;98868.19;5094289;28;20025;-47
2022/05/28 06:45:13;;;;;;;6.05;1.75;;;;;;;32.58;24.32;98872.38;5094203;28;20032;-49
2022/05/28 06:47:44;;;;;;;5.85;1.85;;;;;;;33.00;24.08;98866.59;5094317;28;20498;-47
2022/05/28 06:52:56;;;;;;;5.13;1.70;;;;;;;33.37;23.59;98872.69;5093775;28;20457;-47
2022/05/28 06:55:22;;;;;;;4.63;1.52;;;;;;;33.26;23.55;98866.16;5093713;28;20060;-47
2022/05/28 06:57:48;;;;;;;7.28;1.50;;;;;;;33.13;23.56;98870.88;5092757;28;20110;-47
2022/05/28 07:00:14;;;;;;;7.95;1.92;;;;;;;33.15;22.86;98865.88;5093980;28;20020;-47
2022/05/28 07:02:40;;;;;;;6.85;2.92;;;;;;;33.50;22.98;98865.25;5093852;28;20024;-47
2022/05/28 07:05:06;;;;;;;4.38;2.53;;;;;;;33.77;22.96;98860.13;5092732;28;20042;-46
2022/05/28 07:07:32;;;;;;;7.28;1.90;;;;;;;33.61;22.89;98857.38;5093832;28;20425;-46
2022/05/28 07:09:58;;;;;;;3.83;1.50;;;;;;;33.53;23.28;98861.06;5093991;28;20028;-46
2022/05/28 07:12:24;;;;;;;5.55;1.88;;;;;;;33.49;22.99;98849.28;5093529;28;20031;-47
2022/05/28 07:14:49;;;;;;;7.30;1.45;;;;;;;33.27;23.00;98856.09;5093653;28;20020;-46
2022/05/28 07:17:15;;;;;;;8.95;1.88;;;;;;;32.89;23.66;98847.25;5093564;28;20032;-46
2022/05/28 07:19:44;;;;;;;4.43;1.88;;;;;;;32.47;24.38;98855.72;5093570;28;20166;-47
2022/05/28 07:22:10;;;;;;;4.97;1.80;;;;;;;32.51;24.56;98845.75;5093460;28;20421;-46
2022/05/28 07:24:36;;;;;;;7.30;1.90;;;;;;;32.79;24.28;98837.66;5092148;28;20034;-46
2022/05/28 07:27:02;;;;;;;9.07;2.13;;;;;;;32.77;23.78;98837.22;5093361;28;20089;-46
2022/05/28 07:29:28;;;;;;;8.48;2.17;;;;;;;32.64;24.35;98841.13;5092141;28;20210;-48
2022/05/28 07:31:53;;;;;;;5.50;1.48;;;;;;;32.76;24.24;98823.97;5092986;28;20043;-47
2022/05/28 07:34:19;;;;;;;11.10;1.80;;;;;;;32.67;23.76;98831.47;5093188;28;20020;-48
2022/05/28 07:36:45;;;;;;;4.78;1.75;;;;;;;31.95;24.49;98813.75;5093196;28;20024;-46
2022/05/28 07:39:10;;;;;;;5.35;1.67;;;;;;;31.35;25.44;98821.47;5093155;28;20032;-47
2022/05/28 07:41:36;;;;;;;8.07;2.10;;;;;;;30.94;26.20;98825.81;5093104;28;20024;-47
2022/05/28 07:44:03;;;;;;;9.23;2.03;;;;;;;30.92;25.85;98828.06;5092998;28;20024;-47
2022/05/28 07:46:31;;;;;;;4.72;1.65;;;;;;;30.88;25.90;98826.34;5091691;28;20028;-48
2022/05/28 07:49:00;;;;;;;48.30;4.57;;;;;;;31.16;25.78;98826.59;5093258;28;20043;-48
2022/05/28 07:51:26;;;;;;;16.30;2.97;;;;;;;31.40;25.60;98820.44;5092863;28;20040;-46
2022/05/28 07:53:53;;;;;;;7.60;2.20;;;;;;;32.24;24.27;98801.88;5092752;28;20024;-47
2022/05/28 07:56:20;;;;;;;6.57;1.50;;;;;;;32.51;23.54;98799.56;5092782;28;20016;-47
2022/05/28 07:58:46;;;;;;;4.38;1.52;;;;;;;32.62;23.40;98808.06;5092800;28;20024;-47
2022/05/28 08:01:24;;;;;;;3.22;1.50;;;;;;;32.97;23.72;98807.47;5092968;28;20064;-47
2022/05/28 08:03:50;;;;;;;5.65;1.67;;;;;;;33.54;22.37;98811.69;5092749;28;20027;-47
2022/05/28 08:06:17;;;;;;;2.60;1.58;;;;;;;33.96;22.22;98829.47;5092684;28;20505;-47
2022/05/28 08:08:42;;;;;;;3.40;1.55;;;;;;;34.63;21.75;98810.31;5091292;28;20028;-47
2022/05/28 08:11:09;;;;;;;5.25;1.75;;;;;;;35.27;20.84;98791.72;5092488;28;20072;-48
2022/05/28 08:13:35;;;;;;;4.57;1.60;;;;;;;35.50;20.42;98797.22;5092515;28;20020;-47
2022/05/28 08:16:03;;;;;;;2.35;1.30;;;;;;;35.94;20.15;98777.66;5092512;28;20054;-47
2022/05/28 08:18:29;;;;;;;4.68;1.85;;;;;;;35.83;19.83;98792.28;5092542;28;20020;-47
2022/05/28 08:23:42;;;;;;;7.20;2.15;;;;;;;36.12;19.58;98791.56;5092658;28;20075;-47
2022/05/28 08:26:11;;;;;;;2.97;1.20;;;;;;;36.56;19.51;98790.19;5092275;28;20052;-47
2022/05/28 08:28:38;;;;;;;3.03;1.65;;;;;;;36.47;18.85;98795.16;5090977;28;20028;-47
2022/05/28 08:31:05;;;;;;;7.20;1.80;;;;;;;36.02;19.69;98786.72;5092207;28;20044;-47
2022/05/28 08:33:32;;;;;;;3.35;1.30;;;;;;;36.37;19.41;98789.19;5092399;28;20024;-47
2022/05/28 08:35:59;;;;;;;2.53;1.50;;;;;;;36.86;18.61;98779.22;5092095;28;20056;-49
2022/05/28 08:38:27;;;;;;;6.97;1.60;;;;;;;37.16;18.59;98784.63;5092207;28;20035;-47
2022/05/28 08:41:15;;;;;;;12.63;1.95;;;;;;;36.81;18.75;98782.31;5092117;28;20032;-47
2022/05/28 08:43:53;;;;;;;2.80;1.33;;;;;;;36.20;19.35;98767.84;5092375;28;20028;-47
2022/05/28 08:46:43;;;;;;;6.30;1.60;;;;;;;35.88;19.35;98770.13;5090785;28;20028;-48
2022/05/28 08:49:12;;;;;;;6.90;1.77;;;;;;;35.87;19.46;98769.31;5091966;28;20031;-46
2022/05/28 08:51:56;;;;;;;4.50;1.52;;;;;;;36.20;19.45;98759.66;5091951;28;20086;-47
2022/05/28 08:54:27;;;;;;;6.03;1.55;;;;;;;36.53;18.96;98760.88;5091986;28;20020;-47
2022/05/28 08:56:57;;;;;;;4.78;1.58;;;;;;;36.96;18.45;98742.97;5091883;28;20040;-47
2022/05/28 08:59:28;;;;;;;6.70;1.63;;;;;;;36.46;18.60;98739.69;5091868;28;20158;-47
2022/05/28 09:01:56;;;;;;;4.43;1.48;;;;;;;34.50;20.48;98759.84;5091935;28;20528;-47
2022/05/28 09:04:30;;;;;;;5.38;1.90;;;;;;;34.37;20.37;98751.81;5091878;28;20405;-47
2022/05/28 09:07:03;;;;;;;2.88;1.35;;;;;;;34.57;20.27;98749.06;5092143;28;20043;-47
2022/05/28 09:09:40;;;;;;;3.67;1.52;;;;;;;34.85;20.09;98729.78;5091835;28;20108;-46
2022/05/28 09:12:14;;;;;;;28.05;4.28;;;;;;;35.00;19.95;98730.84;5091784;28;20028;-49
2022/05/28 09:14:40;;;;;;;9.95;2.35;;;;;;;35.06;19.55;98715.75;5090506;28;20112;-48
2022/05/28 09:17:18;;;;;;;7.25;1.75;;;;;;;34.18;20.66;98724.53;5093325;28;20051;-48
2022/05/28 09:19:45;;;;;;;3.42;1.65;;;;;;;33.85;20.66;98731.22;5096174;28;20390;-47
2022/05/28 09:22:12;;;;;;;3.30;1.50;;;;;;;34.09;20.42;98729.38;5094513;28;20038;-48
2022/05/28 09:24:41;;;;;;;5.75;1.67;;;;;;;34.14;20.99;98732.63;5095743;28;20035;-48
2022/05/28 09:27:13;;;;;;;4.55;1.50;;;;;;;34.67;19.85;98725.94;5095785;28;20028;-48
2022/05/28 09:30:00;;;;;;;8.32;3.20;;;;;;;34.93;20.50;98714.31;5096003;28;20097;-48
2022/05/28 09:32:54;;;;;;;31.52;3.78;;;;;;;35.67;19.95;98710.50;5095420;28;20046;-47
2022/05/28 09:35:40;;;;;;;7.05;4.07;;;;;;;35.92;18.93;98703.47;5095894;28;20129;-48
2022/05/28 09:38:12;;;;;;;8.40;1.70;;;;;;;35.23;19.38;98705.53;5095607;28;20067;-48
2022/05/28 09:40:48;;;;;;;1.48;1.13;;;;;;;34.94;19.66;98705.00;5095440;28;20055;-49
2022/05/28 09:43:50;;;;;;;7.57;1.60;;;;;;;35.09;19.72;98695.91;5095477;28;20032;-47
2022/05/28 09:46:36;;;;;;;8.38;1.70;;;;;;;35.63;19.63;98685.06;5095426;28;20031;-48
2022/05/28 09:49:18;;;;;;;10.45;2.08;;;;;;;36.03;19.18;98689.16;5095356;28;20111;-48
2022/05/28 09:51:53;;;;;;;5.47;1.88;;;;;;;36.07;18.81;98685.31;5095291;28;20028;-47
2022/05/28 09:54:33;;;;;;;4.13;1.33;;;;;;;36.19;19.14;98684.31;5095107;28;20061;-47
2022/05/28 09:57:11;;;;;;;6.53;1.48;;;;;;;36.28;18.45;98662.97;5095130;28;20082;-46
2022/05/28 09:59:43;;;;;;;5.13;1.50;;;;;;;35.65;18.82;98653.50;5095132;28;20047;-46
2022/05/28 10:02:19;;;;;;;7.97;2.42;;;;;;;34.85;19.18;98663.53;5095092;28;20035;-46
2022/05/28 10:05:11;;;;;;;7.80;1.75;;;;;;;34.24;20.28;98649.56;5095088;28;20103;-47
2022/05/28 10:07:47;;;;;;;5.38;1.20;;;;;;;33.99;21.25;98666.16;5094984;28;20061;-48
2022/05/28 10:10:15;;;;;;;4.60;1.80;;;;;;;33.95;20.38;98659.84;5094898;28;20038;-49
2022/05/28 10:12:42;;;;;;;5.03;1.38;;;;;;;33.98;20.88;98659.13;5094802;28;20512;-49
2022/05/28 10:15:18;;;;;;;3.80;1.30;;;;;;;34.22;19.84;98646.41;5094850;28;20059;-49
2022/05/28 10:17:58;;;;;;;5.97;1.52;;;;;;;34.65;20.29;98649.13;5094873;28;20032;-48
2022/05/28 10:20:24;;;;;;;6.20;1.38;;;;;;;35.01;19.68;98628.75;5093490;28;20036;-48
2022/05/28 10:22:53;;;;;;;5.22;1.35;;;;;;;34.83;19.62;98641.31;5093365;28;20066;-47
2022/05/28 10:25:37;;;;;;;4.72;1.30;;;;;;;35.07;19.92;98640.91;5093312;28;20032;-47
2022/05/28 10:28:03;;;;;;;8.00;1.80;;;;;;;35.57;19.54;98638.19;5093666;28;20112;-47
2022/05/28 10:30:37;;;;;;;6.22;1.50;;;;;;;35.72;18.64;98631.03;5094173;28;20269;-46
2022/05/28 10:33:12;;;;;;;6.75;1.58;;;;;;;35.43;19.22;98641.50;5094535;28;20035;-47
2022/05/28 10:35:38;;;;;;;3.47;1.10;;;;;;;35.30;19.36;98624.56;5094734;28;20382;-48
2022/05/28 10:38:20;;;;;;;9.32;2.47;;;;;;;34.82;19.62;98632.34;5094417;28;20024;-48
2022/05/28 10:40:58;;;;;;;7.60;1.50;;;;;;;34.84;19.82;98626.53;5094420;28;20021;-48
2022/05/28 10:43:37;;;;;;;3.03;1.40;;;;;;;35.20;19.43;98623.25;5094412;28;20111;-47
2022/05/28 10:46:14;;;;;;;4.93;1.40;;;;;;;34.85;19.88;98623.41;5094271;28;20020;-46
2022/05/28 10:49:18;;;;;;;4.88;1.42;;;;;;;34.82;20.18;98610.53;5094190;28;20035;-49
2022/05/28 10:52:34;;;;;;;5.00;1.43;;;;;;;35.15;19.75;98620.00;5092907;28;20516;-49
2022/05/28 10:55:07;;;;;;;11.52;1.70;;;;;;;35.06;19.48;98606.63;5089146;28;20523;-48
2022/05/28 10:58:23;;;;;;;6.97;1.58;;;;;;;34.26;20.04;98603.66;5092707;28;20077;-48
2022/05/28 11:01:05;;;;;;;5.22;1.27;;;;;;;33.99;20.19;98603.53;5031652;28;20133;-47
2022/05/28 11:03:40;;;;;;;7.55;1.73;;;;;;;34.03;20.51;98601.66;5031607;28;20045;-49
2022/05/28 11:06:17;;;;;;;3.50;1.40;;;;;;;34.03;20.40;98587.25;5031568;28;20116;-48
2022/05/28 11:09:10;;;;;;;3.25;1.02;;;;;;;34.21;20.30;98584.91;5031555;28;20040;-48
2022/05/28 11:12:01;;;;;;;8.25;1.60;;;;;;;34.45;19.99;98582.97;5014793;28;20030;-48
2022/05/28 11:14:46;;;;;;;4.00;1.38;;;;;;;34.66;19.16;98577.94;5031332;28;20203;-48
2022/05/28 11:17:15;;;;;;;7.32;1.50;;;;;;;34.44;19.29;98563.13;5031390;28;20067;-48
2022/05/28 11:20:12;;;;;;;6.05;1.40;;;;;;;34.03;19.96;98579.88;5031253;28;20553;-49
2022/05/28 11:22:59;;;;;;;6.85;2.20;;;;;;;34.06;19.81;98572.91;5027396;28;20033;-49
2022/05/28 11:25:46;;;;;;;6.13;1.27;;;;;;;34.08;19.69;98557.00;5031207;28;20045;-46
2022/05/28 11:28:39;;;;;;;5.10;1.20;;;;;;;34.39;19.72;98549.78;5014792;28;20124;-47
2022/05/28 11:31:31;;;;;;;3.63;1.20;;;;;;;34.54;19.45;98556.28;5054051;28;20040;-47
2022/05/28 11:34:06;;;;;;;8.57;1.88;;;;;;;34.50;18.96;98550.78;5086318;28;20052;-47
2022/05/28 11:36:40;;;;;;;5.75;1.60;;;;;;;33.87;19.22;98545.69;5093303;28;20490;-46
2022/05/28 11:39:36;;;;;;;10.05;1.38;;;;;;;33.59;19.62;98552.91;5091774;28;20119;-48
2022/05/28 11:42:11;;;;;;;10.27;1.08;;;;;;;33.84;20.07;98544.47;5093028;28;20112;-49
2022/05/28 11:44:47;;;;;;;7.05;1.20;;;;;;;34.00;18.88;98530.78;5091859;28;20028;-49
2022/05/28 11:47:30;;;;;;;8.00;1.77;;;;;;;33.59;19.00;98528.41;5093400;28;20112;-47
2022/05/28 11:53:32;;;;;;;5.45;1.30;;;;;;;33.16;19.45;98530.22;5093097;28;20035;-45
2022/05/28 11:56:22;;;;;;;4.78;1.02;;;;;;;32.59;19.62;98529.63;5091614;28;20031;-47
2022/05/28 11:58:55;;;;;;;6.22;1.35;;;;;;;32.52;20.05;98518.59;5092805;28;20107;-49